Time;durP1;ratioP1;P1;durP2;ratioP2;P2;SDS_P1;SDS_P2;PMS_P1;PMS_P2;Temp;Humidity;BMP_temperature;BMP_pressure;BME280_temperature;BME280_humidity;BME280_pressure;Samples;Min_cycle;Max_cycle;Signal;HPM_P1;HPM_P2
2022/10/23 00:01:19;;;;;;;5.60;3.50;;;18.60;85.90;;;;;;5095782;28;20019;-72
2022/10/23 00:03:45;;;;;;;5.95;3.13;;;18.70;86.00;;;;;;5112357;28;20062;-72
2022/10/23 00:06:11;;;;;;;6.60;3.03;;;18.70;86.10;;;;;;5095847;28;20039;-72
2022/10/23 00:08:37;;;;;;;7.72;3.03;;;18.70;86.10;;;;;;5112318;28;20026;-71
2022/10/23 00:11:07;;;;;;;5.75;2.65;;;18.60;86.00;;;;;;5113426;28;20091;-71
2022/10/23 00:13:33;;;;;;;5.18;3.15;;;18.70;86.10;;;;;;5112172;28;20027;-71
2022/10/23 00:15:58;;;;;;;5.25;2.88;;;18.60;86.10;;;;;;5113432;28;20019;-71
2022/10/23 00:18:24;;;;;;;4.18;3.08;;;18.70;86.10;;;;;;5113573;28;20028;-71
2022/10/23 00:20:50;;;;;;;3.70;3.13;;;18.60;86.20;;;;;;5113349;28;20382;-71
2022/10/23 00:23:16;;;;;;;5.22;3.08;;;18.70;86.20;;;;;;5113251;28;20402;-71
2022/10/23 00:25:41;;;;;;;6.40;3.00;;;18.70;86.20;;;;;;5112446;28;20509;-71
2022/10/23 00:28:07;;;;;;;5.07;2.97;;;18.70;86.20;;;;;;5112045;28;20027;-71
2022/10/23 00:30:32;;;;;;;5.18;2.92;;;18.70;86.20;;;;;;5111849;28;20023;-71
2022/10/23 00:32:58;;;;;;;5.65;3.05;;;18.70;86.20;;;;;;5111855;28;20036;-72
2022/10/23 00:35:24;;;;;;;5.00;3.00;;;18.70;86.20;;;;;;5113040;28;20031;-71
2022/10/23 00:37:49;;;;;;;3.65;2.40;;;18.60;86.20;;;;;;5111820;28;20034;-71
2022/10/23 00:40:15;;;;;;;3.50;2.60;;;18.70;86.30;;;;;;5112936;28;20020;-72
2022/10/23 00:42:41;;;;;;;3.90;2.90;;;18.70;86.30;;;;;;5106052;28;20020;-72
2022/10/23 00:45:09;;;;;;;3.78;2.70;;;18.70;86.30;;;;;;5092628;28;20020;-71
2022/10/23 00:47:35;;;;;;;5.00;2.95;;;18.70;86.40;;;;;;5092574;28;20490;-72
2022/10/23 00:50:00;;;;;;;4.38;2.90;;;18.70;86.40;;;;;;5074923;28;20030;-72
2022/10/23 00:52:26;;;;;;;4.03;2.78;;;18.60;86.30;;;;;;5110846;28;20019;-71
2022/10/23 00:54:52;;;;;;;3.38;2.10;;;18.70;86.50;;;;;;5111363;28;20554;-72
2022/10/23 00:57:17;;;;;;;3.72;2.75;;;18.70;86.50;;;;;;5112815;28;20026;-72
2022/10/23 00:59:43;;;;;;;4.28;2.78;;;18.70;86.40;;;;;;5094505;28;20050;-71
2022/10/23 01:02:09;;;;;;;4.75;2.85;;;18.70;86.50;;;;;;5112941;28;20025;-71
2022/10/23 01:04:34;;;;;;;5.32;2.92;;;18.70;86.50;;;;;;5112686;28;20451;-71
2022/10/23 01:07:15;;;;;;;4.72;2.90;;;18.70;86.60;;;;;;5111761;28;20483;-71
2022/10/23 01:09:40;;;;;;;4.80;2.65;;;18.70;86.60;;;;;;5094654;28;20490;-71
2022/10/23 01:12:21;;;;;;;5.07;2.13;;;18.70;86.70;;;;;;5112734;28;20055;-71
2022/10/23 01:14:54;;;;;;;4.78;2.95;;;18.70;86.70;;;;;;5111362;28;20111;-72
2022/10/23 01:17:55;;;;;;;3.90;2.45;;;18.70;86.80;;;;;;5111482;28;20012;-71
2022/10/23 01:20:42;;;;;;;3.45;2.55;;;18.70;86.70;;;;;;5109457;28;20089;-71
2022/10/23 01:23:29;;;;;;;2.72;2.33;;;18.70;86.80;;;;;;5112405;28;20090;-72
2022/10/23 01:26:13;;;;;;;5.05;2.65;;;18.70;86.90;;;;;;5112605;28;20019;-72
2022/10/23 01:29:00;;;;;;;3.53;2.80;;;18.70;86.70;;;;;;5112468;28;20023;-71
2022/10/23 01:31:38;;;;;;;5.63;2.53;;;18.60;86.70;;;;;;5095530;28;20034;-71
2022/10/23 01:34:27;;;;;;;6.35;2.65;;;18.70;86.80;;;;;;5094572;28;20436;-72
2022/10/23 01:36:53;;;;;;;6.53;2.50;;;18.70;86.80;;;;;;5114118;28;20019;-71
2022/10/23 01:39:26;;;;;;;4.28;2.83;;;18.60;86.70;;;;;;5097850;28;20024;-71
2022/10/23 01:42:07;;;;;;;4.55;2.72;;;18.70;86.80;;;;;;5098589;28;20066;-71
2022/10/23 01:45:04;;;;;;;5.38;2.63;;;18.70;86.80;;;;;;5059434;28;20040;-71
2022/10/23 01:47:30;;;;;;;3.35;2.78;;;18.70;86.80;;;;;;5073637;28;20036;-72
2022/10/23 01:49:56;;;;;;;2.90;2.08;;;18.60;86.70;;;;;;5057687;28;20548;-71
2022/10/23 01:52:21;;;;;;;3.08;2.55;;;18.70;86.80;;;;;;5109557;28;20028;-71
2022/10/23 01:54:47;;;;;;;2.97;2.47;;;18.70;86.80;;;;;;5115943;28;20048;-71
2022/10/23 01:57:14;;;;;;;3.20;2.50;;;18.70;86.80;;;;;;5098041;28;20046;-71
2022/10/23 01:59:45;;;;;;;3.55;2.70;;;18.70;86.90;;;;;;5098164;28;20023;-71
2022/10/23 02:02:11;;;;;;;3.40;2.42;;;18.70;86.80;;;;;;5098137;28;20015;-71
2022/10/23 02:04:55;;;;;;;3.47;2.58;;;18.70;86.90;;;;;;5116056;28;20031;-71
2022/10/23 02:07:21;;;;;;;5.22;2.70;;;18.70;86.80;;;;;;5114714;28;20024;-71
2022/10/23 02:09:47;;;;;;;3.22;2.35;;;18.70;86.90;;;;;;5114613;28;20035;-71
2022/10/23 02:12:16;;;;;;;6.88;2.40;;;18.70;86.90;;;;;;5115806;28;20030;-71
2022/10/23 02:14:49;;;;;;;3.72;2.17;;;18.70;86.90;;;;;;5114373;28;20031;-71
2022/10/23 02:17:23;;;;;;;2.40;2.13;;;18.60;86.80;;;;;;5114749;28;20030;-71
2022/10/23 02:20:18;;;;;;;3.47;2.55;;;18.70;86.90;;;;;;5098365;28;20020;-71
2022/10/23 02:23:00;;;;;;;4.72;2.55;;;18.70;86.80;;;;;;5052378;28;20036;-71
2022/10/23 02:25:34;;;;;;;2.83;2.23;;;18.70;86.90;;;;;;5036263;28;20523;-71
2022/10/23 02:28:03;;;;;;;3.30;2.30;;;18.70;86.90;;;;;;5035943;28;20048;-72
2022/10/23 02:30:29;;;;;;;2.80;2.22;;;18.60;86.90;;;;;;5036060;28;20535;-72
2022/10/23 02:32:54;;;;;;;3.30;2.05;;;18.70;86.90;;;;;;5035873;28;20047;-72
2022/10/23 02:35:22;;;;;;;8.85;2.50;;;18.70;86.90;;;;;;5035870;28;20547;-72
2022/10/23 02:37:58;;;;;;;4.90;2.30;;;18.70;86.90;;;;;;5035955;28;20035;-72
2022/10/23 02:40:26;;;;;;;4.97;2.25;;;18.70;86.90;;;;;;5036104;28;20071;-72
2022/10/23 02:42:57;;;;;;;2.83;2.30;;;18.70;86.90;;;;;;5019569;28;20030;-72
2022/10/23 02:45:32;;;;;;;3.28;2.80;;;18.70;87.00;;;;;;5012513;28;20049;-71
2022/10/23 02:48:03;;;;;;;3.08;2.30;;;18.70;87.00;;;;;;5012051;28;20030;-72
2022/10/23 02:50:37;;;;;;;5.80;2.50;;;18.70;87.00;;;;;;4998945;28;20026;-71
2022/10/23 02:53:29;;;;;;;4.75;2.60;;;18.70;87.00;;;;;;5036547;28;20087;-72
2022/10/23 02:56:02;;;;;;;3.63;2.13;;;18.70;87.00;;;;;;5021968;28;20158;-71
2022/10/23 02:59:00;;;;;;;4.93;2.63;;;18.60;87.00;;;;;;5051604;28;20425;-71
2022/10/23 03:01:28;;;;;;;3.33;2.15;;;18.60;86.90;;;;;;5104013;28;20035;-71
2022/10/23 03:03:57;;;;;;;3.53;2.50;;;18.70;87.00;;;;;;5113684;28;20489;-72
2022/10/23 03:06:23;;;;;;;4.93;2.50;;;18.70;87.00;;;;;;5114836;28;20104;-72
2022/10/23 03:08:58;;;;;;;4.85;2.70;;;18.70;87.00;;;;;;5114749;28;20024;-71
2022/10/23 03:11:24;;;;;;;3.47;2.10;;;18.70;86.90;;;;;;5113623;28;20028;-72
2022/10/23 03:13:49;;;;;;;3.47;2.35;;;18.70;86.90;;;;;;5113360;28;20027;-72
2022/10/23 03:16:15;;;;;;;3.78;2.47;;;18.70;87.00;;;;;;5114523;28;20091;-72
2022/10/23 03:18:40;;;;;;;2.97;2.10;;;18.70;87.00;;;;;;5113436;28;20110;-71
2022/10/23 03:21:06;;;;;;;3.78;2.08;;;18.70;87.00;;;;;;5114281;28;20114;-72
2022/10/23 03:23:32;;;;;;;4.30;2.17;;;18.70;86.90;;;;;;5114729;28;20018;-72
2022/10/23 03:25:58;;;;;;;2.75;2.20;;;18.60;86.90;;;;;;5114284;28;20394;-72
2022/10/23 03:28:23;;;;;;;6.00;2.10;;;18.70;87.00;;;;;;5114530;28;20027;-72
2022/10/23 03:30:49;;;;;;;3.50;2.20;;;18.70;87.00;;;;;;5114358;28;20028;-72
2022/10/23 03:33:14;;;;;;;6.65;2.47;;;18.60;86.90;;;;;;5114295;28;20030;-71
2022/10/23 03:35:40;;;;;;;3.92;2.40;;;18.70;87.00;;;;;;5113044;28;20077;-72
2022/10/23 03:38:06;;;;;;;2.92;2.00;;;18.70;86.90;;;;;;5114080;28;20027;-72
2022/10/23 03:40:31;;;;;;;3.33;2.10;;;18.70;86.90;;;;;;5112979;28;20015;-72
2022/10/23 03:42:57;;;;;;;2.75;1.92;;;18.60;86.90;;;;;;5103635;28;20020;-72
2022/10/23 03:45:23;;;;;;;4.93;2.10;;;18.60;86.80;;;;;;5093658;28;20077;-72
2022/10/23 03:47:50;;;;;;;3.72;2.22;;;18.70;87.00;;;;;;5093724;28;20032;-72
2022/10/23 03:50:16;;;;;;;2.60;2.03;;;18.70;86.90;;;;;;5093301;28;20038;-71
2022/10/23 03:52:42;;;;;;;3.22;2.30;;;18.70;86.90;;;;;;5113956;28;20106;-71
2022/10/23 03:55:07;;;;;;;4.43;1.80;;;18.70;87.00;;;;;;5112224;28;20418;-72
2022/10/23 03:57:33;;;;;;;3.05;1.88;;;18.70;86.90;;;;;;5113887;28;20024;-72
2022/10/23 03:59:58;;;;;;;4.63;2.35;;;18.60;86.90;;;;;;5112643;28;20023;-72
2022/10/23 04:02:24;;;;;;;3.28;2.30;;;18.70;87.00;;;;;;5113533;28;20020;-72
2022/10/23 04:04:50;;;;;;;3.38;2.05;;;18.70;87.00;;;;;;5113679;28;20077;-72
2022/10/23 04:07:15;;;;;;;4.03;1.83;;;18.70;86.90;;;;;;5112432;28;20027;-72
2022/10/23 04:09:41;;;;;;;3.17;2.03;;;18.60;86.80;;;;;;5095764;28;20470;-71
2022/10/23 04:12:08;;;;;;;2.58;1.90;;;18.60;86.80;;;;;;5113413;28;20027;-71
2022/10/23 04:14:33;;;;;;;2.40;1.90;;;18.60;86.80;;;;;;5112394;28;20099;-71
2022/10/23 04:16:59;;;;;;;3.67;1.90;;;18.70;87.00;;;;;;5112149;28;20469;-71
2022/10/23 04:19:25;;;;;;;2.10;1.90;;;18.60;86.90;;;;;;5095037;28;20556;-72
2022/10/23 04:21:50;;;;;;;3.60;1.90;;;18.70;86.90;;;;;;5113316;28;20054;-72
2022/10/23 04:24:16;;;;;;;3.40;2.00;;;18.60;86.90;;;;;;5112011;28;20024;-72
2022/10/23 04:26:41;;;;;;;3.35;1.73;;;18.60;86.90;;;;;;5112147;28;20031;-71
2022/10/23 04:29:07;;;;;;;2.25;2.00;;;18.60;87.00;;;;;;5113135;28;20034;-71
2022/10/23 04:31:33;;;;;;;2.20;1.80;;;18.60;86.90;;;;;;5112061;28;20032;-72
2022/10/23 04:33:58;;;;;;;2.35;2.00;;;18.70;87.00;;;;;;5112942;28;20024;-72
2022/10/23 04:36:24;;;;;;;2.97;1.77;;;18.70;87.00;;;;;;5113130;28;20019;-71
2022/10/23 04:38:49;;;;;;;4.00;2.03;;;18.60;86.90;;;;;;5111997;28;20396;-71
2022/10/23 04:41:15;;;;;;;2.75;1.73;;;18.60;86.90;;;;;;5113027;28;20481;-71
2022/10/23 04:43:41;;;;;;;2.85;1.85;;;18.60;86.90;;;;;;5096638;28;20111;-72
2022/10/23 04:46:07;;;;;;;2.13;1.95;;;18.60;87.00;;;;;;5092255;28;20024;-71
2022/10/23 04:48:32;;;;;;;3.70;2.40;;;18.60;87.00;;;;;;5091488;28;20505;-71
2022/10/23 04:50:59;;;;;;;1.90;1.80;;;18.60;86.90;;;;;;5098448;28;20032;-71
2022/10/23 04:53:25;;;;;;;2.67;1.90;;;18.60;86.90;;;;;;5111647;28;20055;-71
2022/10/23 04:55:55;;;;;;;3.63;1.90;;;18.60;86.90;;;;;;5112797;28;20082;-71
2022/10/23 04:58:20;;;;;;;2.88;1.77;;;18.60;87.00;;;;;;5111609;28;20493;-72
2022/10/23 05:00:46;;;;;;;4.25;1.90;;;18.60;86.90;;;;;;5111433;28;20020;-72
2022/10/23 05:03:12;;;;;;;2.72;1.80;;;18.60;86.90;;;;;;5111538;28;20410;-72
2022/10/23 05:05:38;;;;;;;2.35;2.10;;;18.60;86.90;;;;;;5112938;28;20028;-72
2022/10/23 05:08:04;;;;;;;2.50;1.80;;;18.60;86.90;;;;;;5111359;28;20050;-72
2022/10/23 05:10:29;;;;;;;1.75;1.63;;;18.60;86.90;;;;;;5113162;28;20032;-72
2022/10/23 05:12:55;;;;;;;3.60;1.92;;;18.60;87.00;;;;;;5117018;28;20028;-72
2022/10/23 05:15:20;;;;;;;3.22;1.85;;;18.60;87.00;;;;;;5116796;28;20606;-72
2022/10/23 05:17:48;;;;;;;2.97;1.80;;;18.60;87.00;;;;;;5115825;28;20080;-72
2022/10/23 05:20:17;;;;;;;4.13;1.92;;;18.60;87.00;;;;;;5098633;28;20015;-72
2022/10/23 05:22:42;;;;;;;2.92;1.77;;;18.60;87.00;;;;;;5115640;28;20016;-72
2022/10/23 05:25:08;;;;;;;2.00;1.70;;;18.60;87.00;;;;;;5115565;28;20028;-72
2022/10/23 05:27:34;;;;;;;1.98;1.75;;;18.60;87.00;;;;;;5116878;28;20024;-72
2022/10/23 05:30:01;;;;;;;3.58;1.90;;;18.60;87.00;;;;;;5115191;28;20059;-72
2022/10/23 05:32:27;;;;;;;4.72;2.00;;;18.60;86.90;;;;;;5116656;28;20019;-72
2022/10/23 05:34:54;;;;;;;2.78;1.73;;;18.60;86.90;;;;;;5105462;28;20028;-71
2022/10/23 05:37:20;;;;;;;2.15;1.67;;;18.60;86.90;;;;;;5083473;28;20090;-71
2022/10/23 05:39:45;;;;;;;4.05;1.83;;;18.60;86.90;;;;;;5076255;28;20454;-71
2022/10/23 05:42:11;;;;;;;3.05;1.95;;;18.60;86.90;;;;;;5089102;28;20021;-72
2022/10/23 05:44:36;;;;;;;4.65;1.58;;;18.60;86.90;;;;;;5095706;28;20028;-71
2022/10/23 05:47:02;;;;;;;4.82;1.50;;;18.60;86.90;;;;;;5095981;28;20150;-71
2022/10/23 05:49:28;;;;;;;1.60;1.38;;;18.60;86.90;;;;;;5096081;28;20051;-71
2022/10/23 05:51:53;;;;;;;1.55;1.45;;;18.60;86.90;;;;;;5109597;28;20069;-71
2022/10/23 05:54:19;;;;;;;4.50;1.83;;;18.60;86.90;;;;;;5089173;28;20028;-72
2022/10/23 05:56:45;;;;;;;3.72;1.98;;;18.60;87.00;;;;;;5074684;28;20379;-71
2022/10/23 05:59:10;;;;;;;4.88;1.95;;;18.60;86.90;;;;;;5075589;28;20028;-71
2022/10/23 06:01:36;;;;;;;2.33;1.52;;;18.60;87.00;;;;;;5075865;28;20123;-71
2022/10/23 06:04:02;;;;;;;5.43;1.70;;;18.60;87.00;;;;;;5074593;28;20017;-71
2022/10/23 06:06:28;;;;;;;3.05;1.80;;;18.60;87.00;;;;;;5074457;28;20044;-72
2022/10/23 06:08:53;;;;;;;3.83;1.70;;;18.60;87.00;;;;;;5074686;28;20056;-72
2022/10/23 06:11:19;;;;;;;4.75;1.77;;;18.60;87.00;;;;;;5075502;28;20017;-72
2022/10/23 06:13:45;;;;;;;2.67;1.70;;;18.60;87.00;;;;;;5075438;28;20356;-72
2022/10/23 06:16:15;;;;;;;4.05;1.67;;;18.60;87.00;;;;;;5057323;28;20451;-71
2022/10/23 06:18:40;;;;;;;3.45;1.88;;;18.60;87.00;;;;;;5057564;28;20028;-71
2022/10/23 06:21:06;;;;;;;4.13;1.70;;;18.60;87.00;;;;;;5074052;28;20401;-71
2022/10/23 06:23:33;;;;;;;1.60;1.50;;;18.60;87.00;;;;;;5073387;28;20046;-72
2022/10/23 06:25:58;;;;;;;3.03;1.80;;;18.60;87.00;;;;;;5074351;28;20462;-71
2022/10/23 06:28:24;;;;;;;1.48;1.38;;;18.60;87.00;;;;;;5075196;28;20069;-71
2022/10/23 06:30:50;;;;;;;3.03;1.73;;;18.60;87.00;;;;;;5074122;28;20031;-72
2022/10/23 06:33:15;;;;;;;8.02;1.80;;;18.60;87.00;;;;;;5075081;28;20055;-71
2022/10/23 06:35:41;;;;;;;1.92;1.35;;;18.60;87.00;;;;;;5075223;28;20438;-71
2022/10/23 06:38:09;;;;;;;3.83;1.65;;;18.60;87.00;;;;;;5075312;28;20494;-71
2022/10/23 06:40:35;;;;;;;5.40;1.70;;;18.60;87.00;;;;;;5074045;28;20020;-71
2022/10/23 06:43:00;;;;;;;1.70;1.60;;;18.60;87.00;;;;;;5083038;28;20027;-72
2022/10/23 06:45:26;;;;;;;2.85;1.77;;;18.60;87.00;;;;;;5093952;28;20017;-71
2022/10/23 06:47:52;;;;;;;2.40;1.45;;;18.60;87.00;;;;;;5095567;28;20101;-72
2022/10/23 06:50:17;;;;;;;2.28;1.55;;;18.60;87.00;;;;;;5095648;28;20031;-71
2022/10/23 06:52:43;;;;;;;3.25;1.60;;;18.60;87.00;;;;;;5114318;28;20032;-72
2022/10/23 06:55:09;;;;;;;2.72;1.55;;;18.60;87.00;;;;;;5115151;28;20048;-71
2022/10/23 06:57:34;;;;;;;6.28;1.48;;;18.60;87.00;;;;;;5114305;28;20024;-71
2022/10/23 07:00:00;;;;;;;3.63;1.60;;;18.60;87.00;;;;;;5114300;28;20046;-72
2022/10/23 07:02:26;;;;;;;2.08;1.50;;;18.60;87.00;;;;;;5113885;28;20019;-71
2022/10/23 07:04:51;;;;;;;3.50;1.90;;;18.60;87.00;;;;;;5115496;28;20047;-71
2022/10/23 07:07:17;;;;;;;1.10;1.00;;;18.60;87.00;;;;;;5115276;28;20100;-71
2022/10/23 07:09:43;;;;;;;2.53;1.50;;;18.60;87.00;;;;;;5115416;28;20381;-71
2022/10/23 07:12:08;;;;;;;1.83;1.73;;;18.60;87.00;;;;;;5114906;28;20027;-71
2022/10/23 07:14:34;;;;;;;1.40;1.30;;;18.60;87.00;;;;;;5115227;28;20024;-71
2022/10/23 07:16:59;;;;;;;1.95;1.40;;;18.60;87.00;;;;;;5114109;28;20085;-72
2022/10/23 07:19:25;;;;;;;4.10;1.40;;;18.60;87.00;;;;;;5115121;28;20020;-72
2022/10/23 07:21:51;;;;;;;2.53;1.58;;;18.60;87.00;;;;;;5113796;28;20015;-72
2022/10/23 07:24:17;;;;;;;1.50;1.40;;;18.60;87.00;;;;;;5115336;28;20023;-72
2022/10/23 07:26:43;;;;;;;1.58;1.30;;;18.60;87.00;;;;;;5113536;28;20106;-71
2022/10/23 07:29:10;;;;;;;3.75;1.50;;;18.60;86.90;;;;;;5113822;28;20031;-72
2022/10/23 07:31:35;;;;;;;1.90;1.27;;;18.60;87.00;;;;;;5113611;28;20066;-72
2022/10/23 07:34:01;;;;;;;3.13;1.58;;;18.60;87.00;;;;;;5114515;28;20015;-71
2022/10/23 07:36:27;;;;;;;2.83;1.48;;;18.60;87.00;;;;;;5113395;28;20024;-72
2022/10/23 07:38:52;;;;;;;5.13;1.35;;;18.60;87.00;;;;;;5113278;28;20031;-71
2022/10/23 07:41:18;;;;;;;3.10;1.55;;;18.60;87.00;;;;;;5113048;28;20032;-72
2022/10/23 07:43:44;;;;;;;2.05;1.30;;;18.60;87.00;;;;;;5099111;28;20028;-72
2022/10/23 07:46:10;;;;;;;2.35;1.77;;;18.60;87.00;;;;;;5094455;28;20036;-72
2022/10/23 07:48:36;;;;;;;4.20;1.40;;;18.60;87.00;;;;;;5094010;28;20160;-71
2022/10/23 07:51:09;;;;;;;3.05;1.58;;;18.60;86.90;;;;;;5100674;28;20466;-72
2022/10/23 07:53:35;;;;;;;2.50;1.58;;;18.60;86.90;;;;;;5113321;28;20026;-72
2022/10/23 07:56:01;;;;;;;3.88;1.40;;;18.60;86.90;;;;;;5113964;28;20051;-71
2022/10/23 07:58:27;;;;;;;4.45;1.80;;;18.60;86.90;;;;;;5113174;28;20020;-71
2022/10/23 08:00:57;;;;;;;3.05;1.33;;;18.60;87.00;;;;;;5114400;28;20374;-71
2022/10/23 08:03:30;;;;;;;3.78;1.38;;;18.60;87.00;;;;;;5114156;28;20529;-71
2022/10/23 08:05:56;;;;;;;1.60;1.27;;;18.60;87.00;;;;;;5113102;28;20470;-71
2022/10/23 08:08:22;;;;;;;7.75;1.42;;;18.60;87.00;;;;;;5112833;28;20049;-71
2022/10/23 08:10:48;;;;;;;1.95;1.27;;;18.60;87.00;;;;;;5113994;28;20490;-71
2022/10/23 08:13:14;;;;;;;4.28;1.70;;;18.60;86.90;;;;;;5095753;28;20034;-72
2022/10/23 08:15:40;;;;;;;1.80;1.35;;;18.60;87.00;;;;;;5095793;28;20401;-72
2022/10/23 08:18:06;;;;;;;2.28;1.27;;;18.60;87.00;;;;;;5095885;28;20062;-72
2022/10/23 08:20:33;;;;;;;2.88;1.30;;;18.60;87.00;;;;;;5112507;28;20051;-72
2022/10/23 08:22:58;;;;;;;3.33;1.35;;;18.60;87.00;;;;;;5114034;28;20020;-72
2022/10/23 08:25:24;;;;;;;2.97;1.60;;;18.60;87.00;;;;;;5112433;28;20032;-72
2022/10/23 08:27:50;;;;;;;3.13;1.38;;;18.50;86.90;;;;;;5113969;28;20076;-72
2022/10/23 08:30:15;;;;;;;9.18;2.15;;;18.60;87.00;;;;;;5113775;28;20120;-71
2022/10/23 08:32:41;;;;;;;1.63;1.13;;;18.60;87.00;;;;;;5113718;28;20020;-71
2022/10/23 08:35:07;;;;;;;2.95;1.23;;;18.60;87.00;;;;;;5113643;28;20521;-71
2022/10/23 08:37:32;;;;;;;1.92;1.23;;;18.60;87.10;;;;;;5112411;28;20027;-71
2022/10/23 08:39:58;;;;;;;1.20;1.10;;;18.60;87.00;;;;;;5095066;28;20108;-72
2022/10/23 08:42:25;;;;;;;1.42;1.20;;;18.60;87.00;;;;;;5109166;28;20102;-71
2022/10/23 08:44:57;;;;;;;3.60;1.63;;;18.50;87.00;;;;;;5091953;28;20028;-71
2022/10/23 08:47:29;;;;;;;1.27;1.17;;;18.60;87.00;;;;;;5074623;28;20478;-71
2022/10/23 08:49:59;;;;;;;;;;;18.60;87.00;;;;;;5092418;28;20523;-72
2022/10/23 08:52:26;;;;;;;1.42;1.30;;;18.50;86.90;;;;;;5109301;28;19907;-72
2022/10/23 08:54:55;;;;;;;5.88;1.25;;;18.60;87.00;;;;;;5111996;28;20075;-71
2022/10/23 08:57:22;;;;;;;1.92;1.40;;;18.60;87.00;;;;;;5113196;28;20047;-71
2022/10/23 08:59:50;;;;;;;1.98;1.30;;;18.60;87.00;;;;;;5095245;28;20096;-72
2022/10/23 09:02:18;;;;;;;1.55;1.17;;;18.60;87.10;;;;;;5095665;28;20118;-72
2022/10/23 09:04:47;;;;;;;1.70;1.30;;;18.60;87.10;;;;;;5113367;28;20098;-72
2022/10/23 09:07:40;;;;;;;2.38;1.20;;;18.60;87.00;;;;;;5094897;28;20032;-71
2022/10/23 09:10:15;;;;;;;3.95;1.20;;;18.60;87.00;;;;;;5112129;28;20374;-71
2022/10/23 09:12:40;;;;;;;5.22;1.40;;;18.60;87.10;;;;;;5113176;28;20747;-72
2022/10/23 09:15:27;;;;;;;2.83;1.50;;;18.60;87.00;;;;;;5113243;28;20035;-72
2022/10/23 09:18:10;;;;;;;4.45;1.30;;;18.60;87.00;;;;;;5096396;28;20024;-72
2022/10/23 09:20:36;;;;;;;3.97;1.52;;;18.60;87.00;;;;;;5095108;28;20066;-72
2022/10/23 09:23:06;;;;;;;2.35;1.33;;;18.60;87.10;;;;;;5113023;28;20096;-72
2022/10/23 09:25:39;;;;;;;2.92;1.30;;;18.60;87.10;;;;;;5095311;28;20028;-72
2022/10/23 09:28:04;;;;;;;;;;;18.60;87.10;;;;;;5095427;28;20092;-72
2022/10/23 09:30:35;;;;;;;1.42;1.13;;;18.60;87.00;;;;;;5111790;28;19907;-72
2022/10/23 09:33:16;;;;;;;1.83;1.30;;;18.60;87.00;;;;;;5095249;28;20023;-72
2022/10/23 09:35:56;;;;;;;2.53;1.27;;;18.60;87.10;;;;;;5095166;28;20051;-71
2022/10/23 09:38:38;;;;;;;1.65;1.00;;;18.60;87.10;;;;;;5111713;28;20165;-71
2022/10/23 09:41:12;;;;;;;3.65;1.23;;;18.60;87.20;;;;;;5111684;28;20466;-72
2022/10/23 09:43:38;;;;;;;1.65;1.02;;;18.60;87.10;;;;;;5098103;28;20032;-72
2022/10/23 09:46:05;;;;;;;2.35;1.02;;;18.60;87.10;;;;;;5091276;28;20161;-72
2022/10/23 09:48:31;;;;;;;1.67;1.38;;;18.60;87.10;;;;;;5090954;28;20019;-72
2022/10/23 09:51:12;;;;;;;1.55;1.40;;;18.60;87.10;;;;;;5096508;28;20028;-71
2022/10/23 09:53:59;;;;;;;2.72;1.20;;;18.60;87.10;;;;;;5111472;28;20031;-72
2022/10/23 09:56:51;;;;;;;2.67;1.20;;;18.60;87.10;;;;;;5111141;28;20075;-72
2022/10/23 09:59:26;;;;;;;2.08;1.27;;;18.60;87.00;;;;;;5112194;28;20040;-71
2022/10/23 10:01:59;;;;;;;3.40;1.15;;;18.60;87.10;;;;;;5115352;28;20016;-72
2022/10/23 10:04:51;;;;;;;4.20;1.13;;;18.50;87.10;;;;;;5115381;28;20023;-71
2022/10/23 10:07:19;;;;;;;2.42;1.13;;;18.60;87.10;;;;;;5113415;28;20040;-71
2022/10/23 10:09:45;;;;;;;1.05;1.02;;;18.60;87.10;;;;;;5115195;28;20022;-72
2022/10/23 10:12:46;;;;;;;1.60;1.10;;;18.60;87.20;;;;;;5115495;28;20407;-71
2022/10/23 10:15:14;;;;;;;2.13;1.10;;;18.60;87.10;;;;;;5115181;28;20020;-72
2022/10/23 10:21:24;;;;;;;3.92;1.02;;;18.60;87.20;;;;;;4970719;28;20097;-75
2022/10/23 10:24:00;;;;;;;1.83;1.13;;;18.60;87.10;;;;;;5097809;28;20019;-73
2022/10/23 10:27:11;;;;;;;4.47;2.00;;;18.60;87.10;;;;;;5087403;28;20031;-73
2022/10/23 10:29:45;;;;;;;2.25;1.27;;;18.60;87.20;;;;;;5001175;28;20030;-73
2022/10/23 10:32:31;;;;;;;4.88;1.10;;;18.60;87.20;;;;;;5013266;28;20046;-73
2022/10/23 10:35:18;;;;;;;2.35;1.23;;;18.60;87.20;;;;;;5006579;28;20038;-74
2022/10/23 10:38:15;;;;;;;1.00;0.90;;;18.60;87.20;;;;;;5002250;28;20606;-75
2022/10/23 10:40:42;;;;;;;2.97;1.17;;;18.60;87.20;;;;;;5029797;28;20040;-73
2022/10/23 10:44:00;;;;;;;1.63;0.95;;;18.60;87.20;;;;;;5016710;28;20029;-73
2022/10/23 10:46:37;;;;;;;3.40;1.27;;;18.60;87.20;;;;;;4954642;29;20059;-74
2022/10/23 10:49:23;;;;;;;2.05;1.08;;;18.50;87.10;;;;;;4954528;29;20036;-75
2022/10/23 10:52:18;;;;;;;3.10;1.17;;;18.50;87.10;;;;;;4946751;29;20119;-73
2022/10/23 10:54:55;;;;;;;2.65;1.10;;;18.60;87.20;;;;;;4848141;29;20049;-74
2022/10/23 10:57:41;;;;;;;2.03;1.45;;;18.60;87.20;;;;;;4844937;29;20032;-75
2022/10/23 11:00:17;;;;;;;1.27;1.02;;;18.60;87.10;;;;;;4845889;29;20041;-75
2022/10/23 11:02:45;;;;;;;1.80;1.30;;;18.60;87.20;;;;;;4844650;29;20077;-75
2022/10/23 11:05:13;;;;;;;1.60;1.10;;;18.60;87.20;;;;;;4862994;29;20041;-75
2022/10/23 11:08:05;;;;;;;1.77;1.30;;;18.60;87.20;;;;;;4897377;29;20043;-75
2022/10/23 11:10:31;;;;;;;1.80;1.15;;;18.60;87.20;;;;;;4897182;29;20041;-75
2022/10/23 11:12:57;;;;;;;3.42;1.25;;;18.60;87.20;;;;;;4897118;29;20041;-75
2022/10/23 11:15:33;;;;;;;2.20;0.98;;;18.60;87.20;;;;;;4896970;29;20547;-75
2022/10/23 11:18:00;;;;;;;1.83;0.90;;;18.60;87.20;;;;;;4881360;29;20489;-75
2022/10/23 11:20:29;;;;;;;0.93;0.90;;;18.60;87.20;;;;;;4919303;28;20604;-75
2022/10/23 11:23:03;;;;;;;1.88;1.30;;;18.60;87.20;;;;;;5012436;28;20026;-75
2022/10/23 11:25:39;;;;;;;10.90;1.30;;;18.60;87.10;;;;;;4995795;28;20037;-75
2022/10/23 11:28:10;;;;;;;3.22;1.42;;;18.60;87.20;;;;;;5012290;28;20026;-75
2022/10/23 11:30:38;;;;;;;2.05;1.20;;;18.60;87.20;;;;;;5021865;28;20096;-75
2022/10/23 11:33:34;;;;;;;1.55;0.98;;;18.60;87.20;;;;;;5094411;28;20020;-75
2022/10/23 11:36:05;;;;;;;2.35;1.10;;;18.60;87.10;;;;;;5092905;28;20067;-75
2022/10/23 11:38:38;;;;;;;1.55;1.10;;;18.60;87.20;;;;;;5093040;28;20020;-75
2022/10/23 11:41:24;;;;;;;4.25;1.40;;;18.50;87.10;;;;;;5093177;28;20090;-75
2022/10/23 11:44:02;;;;;;;2.65;0.90;;;18.60;87.20;;;;;;5092872;28;20028;-75
2022/10/23 11:46:33;;;;;;;0.40;0.35;;;18.50;86.10;;;;;;5088204;28;20054;-74
2022/10/23 11:49:01;;;;;;;1.07;0.50;;;18.50;85.00;;;;;;5073669;28;20044;-74
2022/10/23 11:51:40;;;;;;;0.50;0.50;;;18.50;84.40;;;;;;5073408;28;20047;-74
2022/10/23 11:54:06;;;;;;;3.13;0.80;;;18.40;84.30;;;;;;5090049;28;20512;-73
2022/10/23 11:56:33;;;;;;;1.67;0.60;;;18.40;84.00;;;;;;5110702;28;20051;-74
2022/10/23 11:58:58;;;;;;;2.20;0.70;;;18.40;84.20;;;;;;5093497;28;20035;-75
2022/10/23 12:01:30;;;;;;;2.20;0.75;;;18.40;85.30;;;;;;5092840;28;20034;-75
2022/10/23 12:04:14;;;;;;;1.00;0.50;;;18.40;84.30;;;;;;5111485;28;20023;-75
2022/10/23 12:06:46;;;;;;;1.33;0.60;;;18.40;84.20;;;;;;5111285;28;20016;-75
2022/10/23 12:09:42;;;;;;;3.13;0.80;;;18.40;84.20;;;;;;5111408;28;20020;-75
2022/10/23 12:12:08;;;;;;;0.63;0.63;;;18.40;84.20;;;;;;5095085;28;20020;-75
2022/10/23 12:14:41;;;;;;;0.80;0.60;;;18.40;84.00;;;;;;5092793;28;20031;-75
2022/10/23 12:17:22;;;;;;;1.90;0.77;;;18.40;84.10;;;;;;5093078;28;20016;-75
2022/10/23 12:19:55;;;;;;;2.88;0.77;;;18.40;84.00;;;;;;5110616;28;20071;-75
2022/10/23 12:22:22;;;;;;;1.38;0.70;;;18.40;84.60;;;;;;5071929;28;20069;-74
2022/10/23 12:24:58;;;;;;;4.03;0.65;;;18.40;84.30;;;;;;5089236;28;20506;-74
2022/10/23 12:27:45;;;;;;;2.67;0.77;;;18.40;84.50;;;;;;5089479;28;20501;-74
2022/10/23 12:30:13;;;;;;;3.22;0.95;;;18.40;84.60;;;;;;5090378;28;20028;-74
2022/10/23 12:32:45;;;;;;;1.15;0.70;;;18.40;84.70;;;;;;5090349;28;20036;-74
2022/10/23 12:35:16;;;;;;;2.03;0.80;;;18.40;84.70;;;;;;5090450;28;20032;-74
2022/10/23 12:38:03;;;;;;;1.17;0.60;;;18.40;84.80;;;;;;5090190;28;20024;-74
2022/10/23 12:40:29;;;;;;;0.80;0.80;;;18.40;84.90;;;;;;5090542;28;20055;-74
2022/10/23 12:42:58;;;;;;;1.33;0.60;;;18.40;85.00;;;;;;5089388;28;20563;-74
2022/10/23 12:45:35;;;;;;;2.58;0.68;;;18.40;85.00;;;;;;5088881;28;20105;-74
2022/10/23 12:48:01;;;;;;;0.82;0.55;;;18.40;85.10;;;;;;5088943;28;20039;-74
2022/10/23 12:50:28;;;;;;;8.02;0.80;;;18.40;85.20;;;;;;5089314;28;20409;-74
2022/10/23 12:52:56;;;;;;;1.02;0.60;;;18.40;85.10;;;;;;5089103;28;20024;-74
2022/10/23 12:55:22;;;;;;;2.25;0.50;;;18.40;85.20;;;;;;5088833;28;20093;-74
2022/10/23 12:57:48;;;;;;;1.63;0.80;;;18.40;85.30;;;;;;5088839;28;20477;-75
2022/10/23 13:00:16;;;;;;;2.38;0.90;;;18.40;85.30;;;;;;5089038;28;20028;-74
2022/10/23 13:02:42;;;;;;;1.77;0.50;;;18.40;85.40;;;;;;5088847;28;20020;-75
2022/10/23 13:05:12;;;;;;;1.15;0.70;;;18.40;85.40;;;;;;5089034;28;20096;-74
2022/10/23 13:07:42;;;;;;;1.75;0.70;;;18.40;85.50;;;;;;5088790;28;20139;-74